sensor_id;sensor_type;location;lat;lon;timestamp;P1;durP1;ratioP1;P2;durP2;ratioP2
64132;SDS011;53116;52.020;4.446;2022-07-06T00:02:00;1.45;;;0.47;;
64132;SDS011;53116;52.020;4.446;2022-07-06T00:04:25;0.82;;;0.40;;
64132;SDS011;53116;52.020;4.446;2022-07-06T00:06:51;1.38;;;0.50;;
64132;SDS011;53116;52.020;4.446;2022-07-06T00:09:16;2.53;;;0.60;;
64132;SDS011;53116;52.020;4.446;2022-07-06T00:11:42;4.22;;;0.50;;
64132;SDS011;53116;52.020;4.446;2022-07-06T00:14:08;1.15;;;0.50;;
64132;SDS011;53116;52.020;4.446;2022-07-06T00:16:34;1.05;;;0.40;;
64132;SDS011;53116;52.020;4.446;2022-07-06T00:19:00;2.60;;;0.70;;
64132;SDS011;53116;52.020;4.446;2022-07-06T00:21:27;0.70;;;0.40;;
64132;SDS011;53116;52.020;4.446;2022-07-06T00:23:53;0.60;;;0.40;;
64132;SDS011;53116;52.020;4.446;2022-07-06T00:26:19;0.88;;;0.50;;
64132;SDS011;53116;52.020;4.446;2022-07-06T00:28:45;1.20;;;0.52;;
64132;SDS011;53116;52.020;4.446;2022-07-06T00:31:11;1.20;;;0.47;;
64132;SDS011;53116;52.020;4.446;2022-07-06T00:33:37;0.60;;;0.50;;
64132;SDS011;53116;52.020;4.446;2022-07-06T00:36:02;1.60;;;0.60;;
64132;SDS011;53116;52.020;4.446;2022-07-06T00:38:29;0.98;;;0.57;;
64132;SDS011;53116;52.020;4.446;2022-07-06T00:40:54;0.93;;;0.50;;
64132;SDS011;53116;52.020;4.446;2022-07-06T00:43:20;0.88;;;0.50;;
64132;SDS011;53116;52.020;4.446;2022-07-06T00:45:45;1.17;;;0.57;;
64132;SDS011;53116;52.020;4.446;2022-07-06T00:48:12;2.63;;;0.50;;
64132;SDS011;53116;52.020;4.446;2022-07-06T00:50:37;0.73;;;0.45;;
64132;SDS011;53116;52.020;4.446;2022-07-06T00:53:03;1.27;;;0.55;;
64132;SDS011;53116;52.020;4.446;2022-07-06T00:55:32;1.08;;;0.40;;
64132;SDS011;53116;52.020;4.446;2022-07-06T00:58:08;1.88;;;0.60;;
64132;SDS011;53116;52.020;4.446;2022-07-06T01:00:34;0.90;;;0.40;;
64132;SDS011;53116;52.020;4.446;2022-07-06T01:03:01;1.77;;;0.50;;
64132;SDS011;53116;52.020;4.446;2022-07-06T01:05:28;0.75;;;0.40;;
64132;SDS011;53116;52.020;4.446;2022-07-06T01:07:54;1.27;;;0.57;;
64132;SDS011;53116;52.020;4.446;2022-07-06T01:10:20;1.10;;;0.52;;
64132;SDS011;53116;52.020;4.446;2022-07-06T01:12:47;0.52;;;0.40;;
64132;SDS011;53116;52.020;4.446;2022-07-06T01:15:17;1.70;;;0.57;;
64132;SDS011;53116;52.020;4.446;2022-07-06T01:17:48;1.02;;;0.57;;
64132;SDS011;53116;52.020;4.446;2022-07-06T01:20:15;0.70;;;0.40;;
64132;SDS011;53116;52.020;4.446;2022-07-06T01:22:45;1.38;;;0.60;;
64132;SDS011;53116;52.020;4.446;2022-07-06T01:25:13;1.90;;;0.60;;
64132;SDS011;53116;52.020;4.446;2022-07-06T01:27:40;1.35;;;0.60;;
64132;SDS011;53116;52.020;4.446;2022-07-06T01:30:07;1.60;;;0.50;;
64132;SDS011;53116;52.020;4.446;2022-07-06T01:32:35;1.50;;;0.50;;
64132;SDS011;53116;52.020;4.446;2022-07-06T01:35:02;1.40;;;0.60;;
64132;SDS011;53116;52.020;4.446;2022-07-06T01:37:31;1.15;;;0.50;;
64132;SDS011;53116;52.020;4.446;2022-07-06T01:39:57;0.98;;;0.50;;
64132;SDS011;53116;52.020;4.446;2022-07-06T01:42:25;1.40;;;0.45;;
64132;SDS011;53116;52.020;4.446;2022-07-06T01:44:50;0.65;;;0.40;;
64132;SDS011;53116;52.020;4.446;2022-07-06T01:47:16;0.50;;;0.38;;
64132;SDS011;53116;52.020;4.446;2022-07-06T01:49:42;0.75;;;0.50;;
64132;SDS011;53116;52.020;4.446;2022-07-06T01:52:07;0.85;;;0.40;;
64132;SDS011;53116;52.020;4.446;2022-07-06T01:54:33;0.70;;;0.50;;
64132;SDS011;53116;52.020;4.446;2022-07-06T01:56:58;1.40;;;0.55;;
64132;SDS011;53116;52.020;4.446;2022-07-06T01:59:24;0.70;;;0.50;;
64132;SDS011;53116;52.020;4.446;2022-07-06T02:01:50;0.82;;;0.40;;
64132;SDS011;53116;52.020;4.446;2022-07-06T02:04:16;1.48;;;0.50;;
64132;SDS011;53116;52.020;4.446;2022-07-06T02:06:42;0.85;;;0.50;;
64132;SDS011;53116;52.020;4.446;2022-07-06T02:09:07;0.60;;;0.40;;
64132;SDS011;53116;52.020;4.446;2022-07-06T02:11:33;1.15;;;0.50;;
64132;SDS011;53116;52.020;4.446;2022-07-06T02:14:00;1.92;;;0.60;;
64132;SDS011;53116;52.020;4.446;2022-07-06T02:16:27;0.90;;;0.57;;
64132;SDS011;53116;52.020;4.446;2022-07-06T02:18:52;2.03;;;0.40;;
64132;SDS011;53116;52.020;4.446;2022-07-06T02:21:18;1.13;;;0.50;;
64132;SDS011;53116;52.020;4.446;2022-07-06T02:23:44;0.52;;;0.50;;
64132;SDS011;53116;52.020;4.446;2022-07-06T02:26:10;0.47;;;0.40;;
64132;SDS011;53116;52.020;4.446;2022-07-06T02:28:35;2.03;;;0.60;;
64132;SDS011;53116;52.020;4.446;2022-07-06T02:31:00;1.05;;;0.40;;
64132;SDS011;53116;52.020;4.446;2022-07-06T02:33:26;0.82;;;0.43;;
64132;SDS011;53116;52.020;4.446;2022-07-06T02:35:52;1.67;;;0.50;;
64132;SDS011;53116;52.020;4.446;2022-07-06T02:38:18;1.10;;;0.50;;
64132;SDS011;53116;52.020;4.446;2022-07-06T02:40:43;1.02;;;0.50;;
64132;SDS011;53116;52.020;4.446;2022-07-06T02:43:08;0.73;;;0.50;;
64132;SDS011;53116;52.020;4.446;2022-07-06T02:45:34;0.75;;;0.40;;
64132;SDS011;53116;52.020;4.446;2022-07-06T02:48:00;1.00;;;0.40;;
64132;SDS011;53116;52.020;4.446;2022-07-06T02:50:25;1.33;;;0.40;;
64132;SDS011;53116;52.020;4.446;2022-07-06T02:52:51;0.90;;;0.47;;
64132;SDS011;53116;52.020;4.446;2022-07-06T02:55:17;0.77;;;0.50;;
64132;SDS011;53116;52.020;4.446;2022-07-06T02:57:43;1.10;;;0.50;;
64132;SDS011;53116;52.020;4.446;2022-07-06T03:00:09;2.42;;;0.40;;
64132;SDS011;53116;52.020;4.446;2022-07-06T03:02:37;1.45;;;0.50;;
64132;SDS011;53116;52.020;4.446;2022-07-06T03:05:07;0.77;;;0.47;;
64132;SDS011;53116;52.020;4.446;2022-07-06T03:07:33;0.50;;;0.30;;
64132;SDS011;53116;52.020;4.446;2022-07-06T03:09:59;10.20;;;0.70;;
64132;SDS011;53116;52.020;4.446;2022-07-06T03:12:25;1.50;;;0.50;;
64132;SDS011;53116;52.020;4.446;2022-07-06T03:14:50;1.52;;;0.50;;
64132;SDS011;53116;52.020;4.446;2022-07-06T03:17:16;1.08;;;0.52;;
64132;SDS011;53116;52.020;4.446;2022-07-06T03:19:42;0.98;;;0.50;;
64132;SDS011;53116;52.020;4.446;2022-07-06T03:22:07;0.70;;;0.45;;
64132;SDS011;53116;52.020;4.446;2022-07-06T03:24:33;1.08;;;0.47;;
64132;SDS011;53116;52.020;4.446;2022-07-06T03:26:59;1.10;;;0.50;;
64132;SDS011;53116;52.020;4.446;2022-07-06T03:29:24;0.80;;;0.50;;
64132;SDS011;53116;52.020;4.446;2022-07-06T03:31:50;1.20;;;0.50;;
64132;SDS011;53116;52.020;4.446;2022-07-06T03:34:16;1.53;;;0.50;;
64132;SDS011;53116;52.020;4.446;2022-07-06T03:36:42;1.08;;;0.40;;
64132;SDS011;53116;52.020;4.446;2022-07-06T03:39:07;1.20;;;0.30;;
64132;SDS011;53116;52.020;4.446;2022-07-06T03:41:33;0.68;;;0.40;;
64132;SDS011;53116;52.020;4.446;2022-07-06T03:44:00;1.60;;;0.40;;
64132;SDS011;53116;52.020;4.446;2022-07-06T03:46:26;1.00;;;0.60;;
64132;SDS011;53116;52.020;4.446;2022-07-06T03:48:53;0.55;;;0.40;;
64132;SDS011;53116;52.020;4.446;2022-07-06T03:51:19;0.82;;;0.38;;
64132;SDS011;53116;52.020;4.446;2022-07-06T03:53:44;0.60;;;0.50;;
64132;SDS011;53116;52.020;4.446;2022-07-06T03:56:10;0.65;;;0.40;;
64132;SDS011;53116;52.020;4.446;2022-07-06T03:59:00;0.77;;;0.40;;
64132;SDS011;53116;52.020;4.446;2022-07-06T04:01:27;0.80;;;0.40;;
64132;SDS011;53116;52.020;4.446;2022-07-06T04:03:53;0.80;;;0.40;;
64132;SDS011;53116;52.020;4.446;2022-07-06T04:06:18;0.80;;;0.43;;
64132;SDS011;53116;52.020;4.446;2022-07-06T04:08:44;0.40;;;0.40;;
64132;SDS011;53116;52.020;4.446;2022-07-06T04:11:10;0.52;;;0.40;;
64132;SDS011;53116;52.020;4.446;2022-07-06T04:13:36;1.10;;;0.52;;
64132;SDS011;53116;52.020;4.446;2022-07-06T04:16:04;0.80;;;0.40;;
64132;SDS011;53116;52.020;4.446;2022-07-06T04:18:31;0.40;;;0.40;;
64132;SDS011;53116;52.020;4.446;2022-07-06T04:20:56;0.68;;;0.30;;
64132;SDS011;53116;52.020;4.446;2022-07-06T04:23:23;0.68;;;0.47;;
64132;SDS011;53116;52.020;4.446;2022-07-06T04:25:50;0.43;;;0.30;;
64132;SDS011;53116;52.020;4.446;2022-07-06T04:28:16;0.55;;;0.35;;
64132;SDS011;53116;52.020;4.446;2022-07-06T04:30:41;3.00;;;0.50;;
64132;SDS011;53116;52.020;4.446;2022-07-06T04:33:07;0.40;;;0.35;;
64132;SDS011;53116;52.020;4.446;2022-07-06T04:35:32;1.20;;;0.60;;
64132;SDS011;53116;52.020;4.446;2022-07-06T04:37:58;0.70;;;0.45;;
64132;SDS011;53116;52.020;4.446;2022-07-06T04:40:23;0.68;;;0.35;;
64132;SDS011;53116;52.020;4.446;2022-07-06T04:42:50;2.80;;;0.40;;
64132;SDS011;53116;52.020;4.446;2022-07-06T04:45:15;0.90;;;0.50;;
64132;SDS011;53116;52.020;4.446;2022-07-06T04:47:40;1.17;;;0.65;;
64132;SDS011;53116;52.020;4.446;2022-07-06T04:50:06;1.98;;;0.52;;
64132;SDS011;53116;52.020;4.446;2022-07-06T04:52:32;1.42;;;0.40;;
64132;SDS011;53116;52.020;4.446;2022-07-06T04:54:58;0.63;;;0.47;;
64132;SDS011;53116;52.020;4.446;2022-07-06T04:57:23;1.15;;;0.43;;
64132;SDS011;53116;52.020;4.446;2022-07-06T04:59:50;0.93;;;0.45;;
64132;SDS011;53116;52.020;4.446;2022-07-06T05:02:16;1.25;;;0.47;;
64132;SDS011;53116;52.020;4.446;2022-07-06T05:04:41;0.70;;;0.40;;
64132;SDS011;53116;52.020;4.446;2022-07-06T05:07:07;1.77;;;0.57;;
64132;SDS011;53116;52.020;4.446;2022-07-06T05:09:32;0.98;;;0.50;;
64132;SDS011;53116;52.020;4.446;2022-07-06T05:11:57;0.80;;;0.50;;
64132;SDS011;53116;52.020;4.446;2022-07-06T05:14:23;2.60;;;0.50;;
64132;SDS011;53116;52.020;4.446;2022-07-06T05:16:49;1.00;;;0.50;;
64132;SDS011;53116;52.020;4.446;2022-07-06T05:19:15;2.17;;;0.65;;
64132;SDS011;53116;52.020;4.446;2022-07-06T05:21:40;1.05;;;0.50;;
64132;SDS011;53116;52.020;4.446;2022-07-06T05:24:06;2.15;;;0.60;;
64132;SDS011;53116;52.020;4.446;2022-07-06T05:26:31;2.03;;;0.55;;
64132;SDS011;53116;52.020;4.446;2022-07-06T05:28:57;1.17;;;0.40;;
64132;SDS011;53116;52.020;4.446;2022-07-06T05:31:22;2.20;;;0.50;;
64132;SDS011;53116;52.020;4.446;2022-07-06T05:33:48;1.80;;;0.50;;
64132;SDS011;53116;52.020;4.446;2022-07-06T05:36:13;4.40;;;0.50;;
64132;SDS011;53116;52.020;4.446;2022-07-06T05:38:38;0.82;;;0.40;;
64132;SDS011;53116;52.020;4.446;2022-07-06T05:41:04;1.40;;;0.40;;
64132;SDS011;53116;52.020;4.446;2022-07-06T05:43:30;1.30;;;0.68;;
64132;SDS011;53116;52.020;4.446;2022-07-06T05:45:55;2.85;;;0.50;;
64132;SDS011;53116;52.020;4.446;2022-07-06T05:48:21;1.33;;;0.40;;
64132;SDS011;53116;52.020;4.446;2022-07-06T05:51:05;1.73;;;0.60;;
64132;SDS011;53116;52.020;4.446;2022-07-06T05:53:31;1.33;;;0.52;;
64132;SDS011;53116;52.020;4.446;2022-07-06T05:55:56;1.65;;;0.50;;
64132;SDS011;53116;52.020;4.446;2022-07-06T05:58:22;1.85;;;0.60;;
64132;SDS011;53116;52.020;4.446;2022-07-06T06:00:50;2.00;;;0.45;;
64132;SDS011;53116;52.020;4.446;2022-07-06T06:03:16;1.55;;;0.50;;
64132;SDS011;53116;52.020;4.446;2022-07-06T06:05:42;0.88;;;0.50;;
64132;SDS011;53116;52.020;4.446;2022-07-06T06:08:08;2.05;;;0.52;;
64132;SDS011;53116;52.020;4.446;2022-07-06T06:10:34;1.00;;;0.40;;
64132;SDS011;53116;52.020;4.446;2022-07-06T06:13:00;1.23;;;0.50;;
64132;SDS011;53116;52.020;4.446;2022-07-06T06:15:25;1.65;;;0.50;;
64132;SDS011;53116;52.020;4.446;2022-07-06T06:17:52;0.82;;;0.30;;
64132;SDS011;53116;52.020;4.446;2022-07-06T06:20:17;3.45;;;0.50;;
64132;SDS011;53116;52.020;4.446;2022-07-06T06:22:51;0.98;;;0.50;;
64132;SDS011;53116;52.020;4.446;2022-07-06T06:25:19;1.35;;;0.57;;
64132;SDS011;53116;52.020;4.446;2022-07-06T06:27:52;0.57;;;0.50;;
64132;SDS011;53116;52.020;4.446;2022-07-06T06:30:19;0.68;;;0.43;;
64132;SDS011;53116;52.020;4.446;2022-07-06T06:32:44;0.52;;;0.40;;
64132;SDS011;53116;52.020;4.446;2022-07-06T06:35:11;1.77;;;0.47;;
64132;SDS011;53116;52.020;4.446;2022-07-06T06:37:37;0.88;;;0.50;;
64132;SDS011;53116;52.020;4.446;2022-07-06T06:40:03;1.02;;;0.52;;
64132;SDS011;53116;52.020;4.446;2022-07-06T06:42:30;0.65;;;0.30;;
64132;SDS011;53116;52.020;4.446;2022-07-06T06:44:57;0.80;;;0.30;;
64132;SDS011;53116;52.020;4.446;2022-07-06T06:47:23;1.00;;;0.50;;
64132;SDS011;53116;52.020;4.446;2022-07-06T06:49:48;2.45;;;0.43;;
64132;SDS011;53116;52.020;4.446;2022-07-06T06:52:14;1.40;;;0.40;;
64132;SDS011;53116;52.020;4.446;2022-07-06T06:54:40;1.05;;;0.40;;
64132;SDS011;53116;52.020;4.446;2022-07-06T06:57:08;1.08;;;0.60;;
64132;SDS011;53116;52.020;4.446;2022-07-06T06:59:33;1.15;;;0.60;;
64132;SDS011;53116;52.020;4.446;2022-07-06T07:01:59;1.00;;;0.43;;
64132;SDS011;53116;52.020;4.446;2022-07-06T07:04:24;2.33;;;0.40;;
64132;SDS011;53116;52.020;4.446;2022-07-06T07:06:51;0.52;;;0.30;;
64132;SDS011;53116;52.020;4.446;2022-07-06T07:09:18;1.02;;;0.50;;
64132;SDS011;53116;52.020;4.446;2022-07-06T07:11:43;0.95;;;0.50;;
64132;SDS011;53116;52.020;4.446;2022-07-06T07:14:09;1.00;;;0.35;;
64132;SDS011;53116;52.020;4.446;2022-07-06T07:16:34;0.43;;;0.30;;
64132;SDS011;53116;52.020;4.446;2022-07-06T07:19:00;1.25;;;0.40;;
64132;SDS011;53116;52.020;4.446;2022-07-06T07:21:26;0.73;;;0.47;;
64132;SDS011;53116;52.020;4.446;2022-07-06T07:23:52;1.38;;;0.40;;
64132;SDS011;53116;52.020;4.446;2022-07-06T07:26:18;0.53;;;0.30;;
64132;SDS011;53116;52.020;4.446;2022-07-06T07:28:43;1.10;;;0.45;;
64132;SDS011;53116;52.020;4.446;2022-07-06T07:31:08;0.67;;;0.30;;
64132;SDS011;53116;52.020;4.446;2022-07-06T07:33:34;1.07;;;0.40;;
64132;SDS011;53116;52.020;4.446;2022-07-06T07:36:00;0.90;;;0.32;;
64132;SDS011;53116;52.020;4.446;2022-07-06T07:38:26;0.98;;;0.32;;
64132;SDS011;53116;52.020;4.446;2022-07-06T07:40:55;0.50;;;0.32;;
64132;SDS011;53116;52.020;4.446;2022-07-06T07:43:20;1.48;;;0.70;;
64132;SDS011;53116;52.020;4.446;2022-07-06T07:45:46;1.10;;;0.60;;
64132;SDS011;53116;52.020;4.446;2022-07-06T07:48:12;0.82;;;0.38;;
64132;SDS011;53116;52.020;4.446;2022-07-06T07:50:41;0.63;;;0.38;;
64132;SDS011;53116;52.020;4.446;2022-07-06T07:53:07;1.40;;;0.40;;
64132;SDS011;53116;52.020;4.446;2022-07-06T07:55:33;0.80;;;0.30;;
64132;SDS011;53116;52.020;4.446;2022-07-06T07:57:58;1.13;;;0.38;;
64132;SDS011;53116;52.020;4.446;2022-07-06T08:00:25;0.75;;;0.40;;
64132;SDS011;53116;52.020;4.446;2022-07-06T08:02:51;0.38;;;0.30;;
64132;SDS011;53116;52.020;4.446;2022-07-06T08:05:18;0.75;;;0.40;;
64132;SDS011;53116;52.020;4.446;2022-07-06T08:07:43;0.50;;;0.30;;
64132;SDS011;53116;52.020;4.446;2022-07-06T08:10:09;0.85;;;0.28;;
64132;SDS011;53116;52.020;4.446;2022-07-06T08:12:35;0.47;;;0.32;;
64132;SDS011;53116;52.020;4.446;2022-07-06T08:15:02;0.82;;;0.30;;
64132;SDS011;53116;52.020;4.446;2022-07-06T08:17:29;1.38;;;0.40;;
64132;SDS011;53116;52.020;4.446;2022-07-06T08:19:55;0.52;;;0.30;;
64132;SDS011;53116;52.020;4.446;2022-07-06T08:22:22;0.40;;;0.30;;
64132;SDS011;53116;52.020;4.446;2022-07-06T08:24:48;0.28;;;0.28;;
64132;SDS011;53116;52.020;4.446;2022-07-06T08:27:14;0.75;;;0.30;;
64132;SDS011;53116;52.020;4.446;2022-07-06T08:29:39;0.70;;;0.30;;
64132;SDS011;53116;52.020;4.446;2022-07-06T08:32:05;0.50;;;0.30;;
64132;SDS011;53116;52.020;4.446;2022-07-06T08:34:31;1.40;;;0.35;;
64132;SDS011;53116;52.020;4.446;2022-07-06T08:36:57;0.55;;;0.20;;
64132;SDS011;53116;52.020;4.446;2022-07-06T08:39:23;1.17;;;0.30;;
64132;SDS011;53116;52.020;4.446;2022-07-06T08:41:48;1.00;;;0.37;;
64132;SDS011;53116;52.020;4.446;2022-07-06T08:44:17;0.77;;;0.30;;
64132;SDS011;53116;52.020;4.446;2022-07-06T08:46:43;0.60;;;0.30;;
64132;SDS011;53116;52.020;4.446;2022-07-06T08:49:14;0.57;;;0.35;;
64132;SDS011;53116;52.020;4.446;2022-07-06T08:51:41;0.65;;;0.30;;
64132;SDS011;53116;52.020;4.446;2022-07-06T08:54:07;0.82;;;0.40;;
64132;SDS011;53116;52.020;4.446;2022-07-06T08:56:34;0.55;;;0.32;;
64132;SDS011;53116;52.020;4.446;2022-07-06T08:59:00;0.82;;;0.40;;
64132;SDS011;53116;52.020;4.446;2022-07-06T09:01:25;0.40;;;0.30;;
64132;SDS011;53116;52.020;4.446;2022-07-06T09:03:51;0.80;;;0.30;;
64132;SDS011;53116;52.020;4.446;2022-07-06T09:06:25;0.73;;;0.30;;
64132;SDS011;53116;52.020;4.446;2022-07-06T09:08:53;0.68;;;0.20;;
64132;SDS011;53116;52.020;4.446;2022-07-06T09:11:21;0.80;;;0.30;;
64132;SDS011;53116;52.020;4.446;2022-07-06T09:13:47;4.03;;;0.43;;
64132;SDS011;53116;52.020;4.446;2022-07-06T09:16:14;2.30;;;0.50;;
64132;SDS011;53116;52.020;4.446;2022-07-06T09:18:44;0.95;;;0.30;;
64132;SDS011;53116;52.020;4.446;2022-07-06T09:21:22;0.68;;;0.30;;
64132;SDS011;53116;52.020;4.446;2022-07-06T09:23:52;1.75;;;0.30;;
64132;SDS011;53116;52.020;4.446;2022-07-06T09:26:19;0.57;;;0.30;;
64132;SDS011;53116;52.020;4.446;2022-07-06T09:28:45;0.50;;;0.40;;
64132;SDS011;53116;52.020;4.446;2022-07-06T09:31:11;0.77;;;0.40;;
64132;SDS011;53116;52.020;4.446;2022-07-06T09:33:40;1.00;;;0.30;;
64132;SDS011;53116;52.020;4.446;2022-07-06T09:36:34;1.90;;;0.30;;
64132;SDS011;53116;52.020;4.446;2022-07-06T09:41:55;0.52;;;0.30;;
64132;SDS011;53116;52.020;4.446;2022-07-06T09:46:55;0.82;;;0.40;;
64132;SDS011;53116;52.020;4.446;2022-07-06T09:49:22;1.17;;;0.40;;
64132;SDS011;53116;52.020;4.446;2022-07-06T09:51:49;0.80;;;0.40;;
64132;SDS011;53116;52.020;4.446;2022-07-06T09:54:16;1.25;;;0.30;;
64132;SDS011;53116;52.020;4.446;2022-07-06T09:56:44;0.45;;;0.30;;
64132;SDS011;53116;52.020;4.446;2022-07-06T09:59:16;0.88;;;0.30;;
64132;SDS011;53116;52.020;4.446;2022-07-06T10:01:46;2.38;;;0.40;;
64132;SDS011;53116;52.020;4.446;2022-07-06T10:04:15;1.23;;;0.32;;
64132;SDS011;53116;52.020;4.446;2022-07-06T10:06:43;0.60;;;0.30;;
64132;SDS011;53116;52.020;4.446;2022-07-06T10:09:10;0.75;;;0.30;;
64132;SDS011;53116;52.020;4.446;2022-07-06T10:11:37;1.83;;;0.30;;
64132;SDS011;53116;52.020;4.446;2022-07-06T10:14:06;0.70;;;0.40;;
64132;SDS011;53116;52.020;4.446;2022-07-06T10:16:35;0.35;;;0.30;;
64132;SDS011;53116;52.020;4.446;2022-07-06T10:19:05;0.60;;;0.30;;
64132;SDS011;53116;52.020;4.446;2022-07-06T10:21:37;2.33;;;0.30;;
64132;SDS011;53116;52.020;4.446;2022-07-06T10:24:04;0.60;;;0.30;;
64132;SDS011;53116;52.020;4.446;2022-07-06T10:26:34;0.50;;;0.22;;
64132;SDS011;53116;52.020;4.446;2022-07-06T10:29:01;1.85;;;0.40;;
64132;SDS011;53116;52.020;4.446;2022-07-06T10:31:28;0.40;;;0.35;;
64132;SDS011;53116;52.020;4.446;2022-07-06T10:34:02;0.88;;;0.38;;
64132;SDS011;53116;52.020;4.446;2022-07-06T10:36:32;0.55;;;0.35;;
64132;SDS011;53116;52.020;4.446;2022-07-06T10:39:03;0.80;;;0.55;;
64132;SDS011;53116;52.020;4.446;2022-07-06T10:41:48;0.47;;;0.30;;
64132;SDS011;53116;52.020;4.446;2022-07-06T10:44:15;0.47;;;0.30;;
64132;SDS011;53116;52.020;4.446;2022-07-06T10:46:49;0.85;;;0.38;;
64132;SDS011;53116;52.020;4.446;2022-07-06T10:49:17;0.77;;;0.38;;
64132;SDS011;53116;52.020;4.446;2022-07-06T10:51:43;0.65;;;0.45;;
64132;SDS011;53116;52.020;4.446;2022-07-06T10:54:08;1.02;;;0.35;;
64132;SDS011;53116;52.020;4.446;2022-07-06T10:56:50;1.02;;;0.40;;
64132;SDS011;53116;52.020;4.446;2022-07-06T10:59:17;1.65;;;0.43;;
64132;SDS011;53116;52.020;4.446;2022-07-06T11:04:44;0.68;;;0.50;;
64132;SDS011;53116;52.020;4.446;2022-07-06T11:07:14;0.77;;;0.40;;
64132;SDS011;53116;52.020;4.446;2022-07-06T11:09:56;0.98;;;0.50;;
64132;SDS011;53116;52.020;4.446;2022-07-06T11:12:28;1.13;;;0.50;;
64132;SDS011;53116;52.020;4.446;2022-07-06T11:14:57;0.80;;;0.50;;
64132;SDS011;53116;52.020;4.446;2022-07-06T11:17:27;0.65;;;0.40;;
64132;SDS011;53116;52.020;4.446;2022-07-06T11:19:57;0.88;;;0.43;;
64132;SDS011;53116;52.020;4.446;2022-07-06T11:22:35;0.88;;;0.40;;
64132;SDS011;53116;52.020;4.446;2022-07-06T11:25:02;1.08;;;0.40;;
64132;SDS011;53116;52.020;4.446;2022-07-06T11:27:30;0.63;;;0.50;;
64132;SDS011;53116;52.020;4.446;2022-07-06T11:29:56;2.10;;;0.70;;
64132;SDS011;53116;52.020;4.446;2022-07-06T11:32:26;1.10;;;0.50;;
64132;SDS011;53116;52.020;4.446;2022-07-06T11:34:52;1.48;;;0.70;;
64132;SDS011;53116;52.020;4.446;2022-07-06T11:37:18;1.20;;;0.57;;
64132;SDS011;53116;52.020;4.446;2022-07-06T11:39:45;1.17;;;0.63;;
64132;SDS011;53116;52.020;4.446;2022-07-06T11:42:14;2.50;;;0.50;;
64132;SDS011;53116;52.020;4.446;2022-07-06T11:44:44;0.80;;;0.50;;
64132;SDS011;53116;52.020;4.446;2022-07-06T11:47:11;1.40;;;0.43;;
64132;SDS011;53116;52.020;4.446;2022-07-06T11:49:39;1.00;;;0.52;;
64132;SDS011;53116;52.020;4.446;2022-07-06T11:52:09;1.55;;;0.60;;
64132;SDS011;53116;52.020;4.446;2022-07-06T11:54:38;1.42;;;0.60;;
64132;SDS011;53116;52.020;4.446;2022-07-06T11:57:07;2.00;;;0.70;;
64132;SDS011;53116;52.020;4.446;2022-07-06T11:59:34;1.05;;;0.47;;
64132;SDS011;53116;52.020;4.446;2022-07-06T12:02:02;2.75;;;0.68;;
64132;SDS011;53116;52.020;4.446;2022-07-06T12:04:30;1.35;;;0.50;;
64132;SDS011;53116;52.020;4.446;2022-07-06T12:07:00;1.35;;;0.60;;
64132;SDS011;53116;52.020;4.446;2022-07-06T12:09:30;1.02;;;0.63;;
64132;SDS011;53116;52.020;4.446;2022-07-06T12:11:58;1.13;;;0.50;;
64132;SDS011;53116;52.020;4.446;2022-07-06T12:14:27;1.10;;;0.60;;
64132;SDS011;53116;52.020;4.446;2022-07-06T12:16:54;1.52;;;0.70;;
64132;SDS011;53116;52.020;4.446;2022-07-06T12:19:21;0.90;;;0.60;;
64132;SDS011;53116;52.020;4.446;2022-07-06T12:21:49;1.40;;;0.70;;
64132;SDS011;53116;52.020;4.446;2022-07-06T12:24:17;1.30;;;0.75;;
64132;SDS011;53116;52.020;4.446;2022-07-06T12:26:47;1.50;;;0.63;;
64132;SDS011;53116;52.020;4.446;2022-07-06T12:29:13;1.55;;;0.52;;
64132;SDS011;53116;52.020;4.446;2022-07-06T12:31:41;1.02;;;0.55;;
64132;SDS011;53116;52.020;4.446;2022-07-06T12:34:16;1.13;;;0.60;;
64132;SDS011;53116;52.020;4.446;2022-07-06T12:36:46;2.45;;;0.60;;
64132;SDS011;53116;52.020;4.446;2022-07-06T12:39:14;1.88;;;0.80;;
64132;SDS011;53116;52.020;4.446;2022-07-06T12:41:45;1.33;;;0.60;;
64132;SDS011;53116;52.020;4.446;2022-07-06T12:44:25;1.52;;;0.80;;
64132;SDS011;53116;52.020;4.446;2022-07-06T12:47:01;1.63;;;0.70;;
64132;SDS011;53116;52.020;4.446;2022-07-06T12:49:28;0.85;;;0.65;;
64132;SDS011;53116;52.020;4.446;2022-07-06T12:51:56;0.95;;;0.75;;
64132;SDS011;53116;52.020;4.446;2022-07-06T12:54:29;1.92;;;0.80;;
64132;SDS011;53116;52.020;4.446;2022-07-06T12:59:29;1.17;;;0.70;;
64132;SDS011;53116;52.020;4.446;2022-07-06T13:01:56;2.15;;;0.90;;
64132;SDS011;53116;52.020;4.446;2022-07-06T13:04:24;1.35;;;0.80;;
64132;SDS011;53116;52.020;4.446;2022-07-06T13:06:51;2.25;;;0.93;;
64132;SDS011;53116;52.020;4.446;2022-07-06T13:09:17;1.30;;;0.80;;
64132;SDS011;53116;52.020;4.446;2022-07-06T13:11:45;1.48;;;0.82;;
64132;SDS011;53116;52.020;4.446;2022-07-06T13:14:12;1.95;;;0.90;;
64132;SDS011;53116;52.020;4.446;2022-07-06T13:16:40;1.73;;;0.70;;
64132;SDS011;53116;52.020;4.446;2022-07-06T13:19:05;1.17;;;0.63;;
64132;SDS011;53116;52.020;4.446;2022-07-06T13:21:31;2.53;;;1.00;;
64132;SDS011;53116;52.020;4.446;2022-07-06T13:23:56;2.22;;;0.80;;
64132;SDS011;53116;52.020;4.446;2022-07-06T13:26:22;1.37;;;0.80;;
64132;SDS011;53116;52.020;4.446;2022-07-06T13:28:48;1.85;;;0.82;;
64132;SDS011;53116;52.020;4.446;2022-07-06T13:31:13;2.80;;;0.90;;
64132;SDS011;53116;52.020;4.446;2022-07-06T13:33:38;2.47;;;0.90;;
64132;SDS011;53116;52.020;4.446;2022-07-06T13:36:05;1.23;;;1.00;;
64132;SDS011;53116;52.020;4.446;2022-07-06T13:38:32;2.08;;;0.93;;
64132;SDS011;53116;52.020;4.446;2022-07-06T13:40:57;1.95;;;0.90;;
64132;SDS011;53116;52.020;4.446;2022-07-06T13:43:23;2.25;;;1.00;;
64132;SDS011;53116;52.020;4.446;2022-07-06T13:45:51;3.42;;;1.00;;
64132;SDS011;53116;52.020;4.446;2022-07-06T13:48:17;2.17;;;0.90;;
64132;SDS011;53116;52.020;4.446;2022-07-06T13:50:43;1.75;;;0.90;;
64132;SDS011;53116;52.020;4.446;2022-07-06T13:53:09;1.70;;;1.00;;
64132;SDS011;53116;52.020;4.446;2022-07-06T13:55:35;2.25;;;1.10;;
64132;SDS011;53116;52.020;4.446;2022-07-06T13:58:00;1.83;;;0.80;;
64132;SDS011;53116;52.020;4.446;2022-07-06T14:00:26;2.40;;;1.00;;
64132;SDS011;53116;52.020;4.446;2022-07-06T14:02:52;2.50;;;1.00;;
64132;SDS011;53116;52.020;4.446;2022-07-06T14:05:18;1.98;;;0.90;;
64132;SDS011;53116;52.020;4.446;2022-07-06T14:07:44;1.77;;;1.02;;
64132;SDS011;53116;52.020;4.446;2022-07-06T14:10:10;2.53;;;1.00;;
64132;SDS011;53116;52.020;4.446;2022-07-06T14:12:35;2.42;;;1.27;;
64132;SDS011;53116;52.020;4.446;2022-07-06T14:15:01;1.80;;;1.00;;
64132;SDS011;53116;52.020;4.446;2022-07-06T14:17:27;2.10;;;0.98;;
64132;SDS011;53116;52.020;4.446;2022-07-06T14:19:53;2.35;;;1.20;;
64132;SDS011;53116;52.020;4.446;2022-07-06T14:22:18;3.30;;;1.25;;
64132;SDS011;53116;52.020;4.446;2022-07-06T14:24:44;3.07;;;1.13;;
64132;SDS011;53116;52.020;4.446;2022-07-06T14:27:09;2.63;;;1.20;;
64132;SDS011;53116;52.020;4.446;2022-07-06T14:29:35;2.38;;;1.30;;
64132;SDS011;53116;52.020;4.446;2022-07-06T14:32:01;3.87;;;1.40;;
64132;SDS011;53116;52.020;4.446;2022-07-06T14:34:27;3.25;;;1.40;;
64132;SDS011;53116;52.020;4.446;2022-07-06T14:36:53;3.30;;;1.50;;
64132;SDS011;53116;52.020;4.446;2022-07-06T14:39:19;2.15;;;1.42;;
64132;SDS011;53116;52.020;4.446;2022-07-06T14:41:45;3.25;;;1.35;;
64132;SDS011;53116;52.020;4.446;2022-07-06T14:44:11;3.25;;;1.27;;
64132;SDS011;53116;52.020;4.446;2022-07-06T14:46:37;3.05;;;1.42;;
64132;SDS011;53116;52.020;4.446;2022-07-06T14:49:02;3.73;;;1.63;;
64132;SDS011;53116;52.020;4.446;2022-07-06T14:51:27;3.63;;;1.70;;
64132;SDS011;53116;52.020;4.446;2022-07-06T14:53:53;3.33;;;1.50;;
64132;SDS011;53116;52.020;4.446;2022-07-06T14:56:19;4.15;;;1.73;;
64132;SDS011;53116;52.020;4.446;2022-07-06T14:58:45;3.00;;;1.48;;